x

South Nomad (46036) Wave Buoy

4:00pm - Thu 30th Jul 2015 All times are UTC.

  • Sig Wave height 3.9ft
  • Peak Period 16s
  • Wind
    2mph
  • Sea Temp 63°f
  • Air Temp 63°f
  • Sea Pressure 1025mb

More Historic Weather Station data

Upgrade to MSW Pro to gain access to the past 30 days of data for over 8000 Wavebouys and Weather Stations around the globe.

Join Pro

Comparision Forecast

View Surf forecast
   
Thu 07/30 4:00pm 4ft 16s 2
mph
1025mb 63f 63f
3:00pm 4.5ft 16s 4 7 mph 1025mb 63f 62f
2:00pm 4ft 16s 7
mph
1024.9mb 63f 62f
1:00pm 4.5ft 16s 7
mph
1024.7mb 63f 62f
12:00pm 3.5ft 15s 7 9 mph 1024.6mb 63f 62f
11:00am 3.5ft 15s 4 7 mph 1024.7mb 63f 61f
10:00am 4ft 16s 4 7 mph 1024.6mb 63f 61f
9:00am 4.5ft 16s 4 7 mph 1024.8mb 63f 62f
8:00am 4.5ft 15s 2
mph
1024.8mb 63f 61f
7:00am 4.5ft 15s 2 4 mph 1024.9mb 64f 61f
6:00am 4.5ft 16s 4
mph
1025.1mb 64f 61f
5:00am 4.5ft 16s 4 7 mph 1025.1mb 64f 61f
4:00am 4.5ft 17s 7
mph
1024.9mb 64f 60f
3:00am 4.5ft 17s 4 7 mph 1025.1mb 64f 59f
2:00am 5ft 16s 9
mph
1025.2mb 64f 61f
1:00am 4.5ft 15s 4 7 mph 1025.4mb 64f 62f
12:00am 4.5ft 16s 7 9 mph 1025.8mb 64f 62f
Wed 07/29 11:00pm 5ft 17s 9
mph
1026.1mb 64f 62f
10:00pm 5ft 8s 7 9 mph 1026.2mb 64f 63f
9:00pm 5ft 16s 2 4 mph 1026.1mb 64f 63f
8:00pm 5ft 16s 2 4 mph 1026.1mb 63f 62f
7:00pm 5ft 17s 9 11 mph 1026mb 63f 61f
6:00pm 5ft 17s 9 11 mph 1025.8mb 63f 61f
5:00pm 5ft 17s 9 11 mph 1025.7mb 63f 61f
3:00pm 5ft 16s 7 11 mph 1025.7mb 62f 60f
2:00pm 5.5ft 17s 2
mph
1025.7mb 62f 60f
1:00pm 6ft 8s 4
mph
1025.7mb 62f 60f
12:00pm 6ft 17s 9 11 mph 1025.7mb 62f 61f
11:00am 5.5ft 10s 7 9 mph 1025.6mb 62f 62f
10:00am 6ft 17s 9 13 mph 1025.6mb 63f 61f
9:00am 6ft 10s 9 11 mph 1025.7mb 63f 61f
8:00am 6ft 17s 9 11 mph 1025.7mb 63f 62f
7:00am 6ft 10s 11 13 mph 1025.7mb 63f 61f
6:00am 6.5ft 9s 9 11 mph 1025.7mb 63f 61f
5:00am 6.5ft 10s 9 11 mph 1025.6mb 63f 61f
4:00am 7ft 10s 11 13 mph 1025.5mb 63f 61f
3:00am 6ft 10s 11 13 mph 1025.5mb 63f 61f
2:00am 6.5ft 10s 11 13 mph 1025.7mb 63f 61f
1:00am 6.5ft 10s 13 18 mph 1025.9mb 63f 61f
12:00am 7.5ft 9s 13 18 mph 1026mb 63f 61f
Tue 07/28 10:00pm 7ft 9s 11 16 mph 1025.9mb 63f 62f
9:00pm 7.5ft 10s 13 16 mph 1026.1mb 63f 61f
8:00pm 7.5ft 9s 18 20 mph 1026mb 62f 61f
7:00pm 7ft 10s 13 18 mph 1025.9mb 62f 62f
6:00pm 7ft 10s 13 18 mph 1025.8mb 62f 62f
5:00pm 7.5ft 9s 16 18 mph 1025.9mb 62f 61f
4:00pm 7ft 10s 16 18 mph 1025.9mb 62f 61f
3:00pm 7ft 8s 11 18 mph 1025.8mb 62f 61f
2:00pm 7ft 8s 13 16 mph 1025.7mb 62f 61f
1:00pm 7ft 10s 13 18 mph 1025.5mb 62f 60f
12:00pm 7ft 9s 13 16 mph 1025.6mb 62f 59f
11:00am 6.5ft 9s 16 20 mph 1025.8mb 63f 60f
10:00am 6.5ft 10s 16 20 mph 1025.8mb 62f 60f
9:00am 6.5ft 9s 16 20 mph 1025.9mb 62f 60f
8:00am 6.5ft 8s 16 18 mph 1025.9mb 62f 60f
7:00am 6.5ft 8s 11 13 mph 1025.6mb 62f 60f
6:00am 6ft 8s 13 18 mph 1025.8mb 62f 60f
5:00am 6ft 9s 13 16 mph 1025.8mb 62f 60f
4:00am 6.5ft 8s 13 16 mph 1025.7mb 62f 60f
3:00am 6.5ft 10s 11 16 mph 1025.8mb 63f 60f
2:00am 6ft 11s 13 16 mph 1025.4mb 63f 60f
1:00am 6.5ft 8s 11 13 mph 1025.5mb 63f 61f
12:00am 6ft 11s 13 18 mph 1025.7mb 63f 61f
Mon 07/27 10:00pm 6ft 10s 13 18 mph 1025.6mb 63f 60f
9:00pm 6ft 9s 16 22 mph 1025.4mb 62f 59f
8:00pm 6ft 11s 9 11 mph 1025.3mb 62f 59f
7:00pm 6ft 10s 11 13 mph 1025.3mb 62f 59f
6:00pm 6.5ft 8s 13 16 mph 1025.2mb 62f 59f
5:00pm 6ft 10s 13 18 mph 1024.8mb 62f 59f
4:00pm 6ft 9s 18 20 mph 1024.4mb 62f 59f
3:00pm 6ft 8s 16 22 mph 1024.5mb 62f 59f
2:00pm 6ft 9s 18 22 mph 1024mb 62f 60f
1:00pm 5.5ft 9s 16 20 mph 1024.1mb 62f 61f
12:00pm 5ft 8s 18 20 mph 1024mb 62f 61f
11:00am 5ft 8s 13 18 mph 1024.2mb 62f 60f
10:00am 4.5ft 9s 16 18 mph 1024.4mb 62f 59f
9:00am 5ft 8s 16 20 mph 1024.5mb 62f 60f
8:00am 5ft 8s 13 20 mph 1024.7mb 62f 60f
7:00am 4.5ft 9s 13 16 mph 1024.7mb 62f 60f
6:00am 4.5ft 8s 11 16 mph 1024.8mb 62f 61f
5:00am 5ft 9s 11 16 mph 1024.9mb 62f 61f
4:00am 5ft 8s 13
mph
1024.8mb 62f 60f
3:00am 4.5ft 10s 13 16 mph 1024.8mb 62f 61f
2:00am 5ft 8s 13
mph
1024.7mb 63f 61f
1:00am 5ft 8s 9 13 mph 1024.9mb 63f 61f
12:00am 5ft 9s 11 13 mph 1024.9mb 63f 61f
Sun 07/26 11:00pm 5ft 8s 11 13 mph 1024.9mb 63f 61f
10:00pm 5ft 9s 11 13 mph 1024.6mb 63f 61f
9:00pm 5ft 9s 9 13 mph 1024.5mb 63f 61f
8:00pm 5ft 9s 9 11 mph 1024.4mb 63f 61f
7:00pm 5ft 9s 11 13 mph 1024.1mb 62f 60f
6:00pm 5.5ft 9s 13 16 mph 1023.6mb 62f 60f